Time;durP1;ratioP1;P1;durP2;ratioP2;P2;SDS_P1;SDS_P2;PMS_P1;PMS_P2;Temp;Humidity;BMP_temperature;BMP_pressure;BME280_temperature;BME280_humidity;BME280_pressure;Samples;Min_cycle;Max_cycle;Signal;HPM_P1;HPM_P2
2023/10/14 00:01:55;;;;;;;1999.90;999.90;;;;;;;18.36;100.00;97357.09;18626275;31;20207;-59
2023/10/14 00:12:01;;;;;;;1999.90;999.90;;;;;;;18.49;100.00;97379.13;18625688;31;20056;-59
2023/10/14 00:22:05;;;;;;;1999.90;999.90;;;;;;;18.83;100.00;97389.09;18625217;31;20424;-59
2023/10/14 00:32:08;;;;;;;1999.90;999.90;;;;;;;19.89;100.00;97433.81;18624842;31;20437;-59
2023/10/14 00:42:11;;;;;;;1999.90;999.90;;;;;;;18.42;100.00;97442.59;18624641;31;20061;-58
2023/10/14 00:52:18;;;;;;;1999.90;999.90;;;;;;;17.78;100.00;97452.31;18624193;31;20488;-59
2023/10/14 01:02:33;;;;;;;1999.90;999.90;;;;;;;17.27;100.00;97417.25;18628390;31;20052;-59
2023/10/14 01:12:42;;;;;;;1999.90;999.90;;;;;;;17.12;100.00;97395.88;18629406;31;20053;-59
2023/10/14 01:22:57;;;;;;;1999.90;999.90;;;;;;;16.96;100.00;97386.53;18635313;31;20096;-59
2023/10/14 01:33:12;;;;;;;1999.90;999.90;;;;;;;16.77;100.00;97365.72;18620171;31;20101;-59
2023/10/14 01:43:23;;;;;;;1999.90;999.90;;;;;;;16.54;100.00;97365.03;18633704;31;20045;-59
2023/10/14 01:53:31;;;;;;;1999.90;999.90;;;;;;;16.54;100.00;97379.50;18633437;31;20086;-59
2023/10/14 02:03:41;;;;;;;1999.90;999.90;;;;;;;16.60;100.00;97386.41;18632707;31;20067;-59
2023/10/14 02:13:45;;;;;;;1999.90;999.90;;;;;;;16.53;100.00;97383.34;18631344;31;20100;-59
2023/10/14 02:23:47;;;;;;;1999.90;999.90;;;;;;;16.55;100.00;97386.56;18631358;31;20140;-59
2023/10/14 02:33:49;;;;;;;1999.90;999.90;;;;;;;16.63;100.00;97404.06;18630958;31;20099;-59
2023/10/14 02:44:01;;;;;;;1999.90;999.90;;;;;;;16.61;100.00;97411.78;18630128;31;20467;-59
2023/10/14 02:54:04;;;;;;;1999.90;999.90;;;;;;;16.59;100.00;97412.09;18629489;31;20491;-59
2023/10/14 03:04:07;;;;;;;1999.90;999.90;;;;;;;16.46;100.00;97410.28;18628843;31;20068;-59
2023/10/14 03:14:10;;;;;;;1999.90;999.90;;;;;;;16.47;100.00;97414.59;18628266;31;20418;-59
2023/10/14 03:24:17;;;;;;;1999.90;999.90;;;;;;;16.29;100.00;97404.75;18627594;31;20052;-59
2023/10/14 03:34:21;;;;;;;1999.90;999.90;;;;;;;16.20;100.00;97402.78;18600350;31;20112;-59
2023/10/14 03:44:24;;;;;;;;;;;;;;;16.20;100.00;97413.69;18627091;31;20428;-59
2023/10/14 03:54:28;;;;;;;1999.90;999.90;;;;;;;16.20;100.00;97405.50;18626816;31;19991;-59
2023/10/14 04:04:31;;;;;;;1999.90;999.90;;;;;;;16.22;100.00;97422.34;18625502;31;20061;-59
2023/10/14 04:14:36;;;;;;;1999.90;999.90;;;;;;;16.07;100.00;97431.75;18625191;31;20104;-59
2023/10/14 04:34:43;;;;;;;1999.90;999.90;;;;;;;16.03;100.00;97435.41;18625906;31;20060;-59
2023/10/14 04:44:58;;;;;;;1999.90;999.90;;;;;;;16.00;100.00;97425.13;18637275;31;20044;-59
2023/10/14 05:05:24;;;;;;;1999.90;999.90;;;;;;;15.89;100.00;97409.00;18636552;31;20123;-59
2023/10/14 05:15:28;;;;;;;1999.90;999.90;;;;;;;15.82;100.00;97422.28;18635657;31;20060;-59
2023/10/14 05:25:30;;;;;;;1999.90;999.90;;;;;;;15.85;100.00;97424.37;18635410;31;20056;-59
2023/10/14 05:35:40;;;;;;;1999.90;999.90;;;;;;;15.77;100.00;97419.66;18634736;31;20076;-59
2023/10/14 05:45:44;;;;;;;1999.90;999.90;;;;;;;15.78;100.00;97434.09;18566485;31;20094;-58
2023/10/14 05:56:09;;;;;;;1999.90;999.90;;;;;;;15.80;100.00;97440.87;18567601;31;20119;-59
2023/10/14 06:06:16;;;;;;;1999.90;999.90;;;;;;;15.87;100.00;97445.91;18567414;31;20067;-59
2023/10/14 06:16:19;;;;;;;1999.90;999.90;;;;;;;16.12;100.00;97449.91;18566655;31;20393;-59
2023/10/14 06:26:22;;;;;;;1999.90;999.90;;;;;;;16.13;100.00;97458.88;18565962;31;20100;-59
2023/10/14 06:36:24;;;;;;;1999.90;999.90;;;;;;;16.33;100.00;97466.53;18551119;32;20098;-59
2023/10/14 06:46:27;;;;;;;1999.90;999.90;;;;;;;16.48;100.00;97472.72;18624735;31;20397;-59
2023/10/14 06:56:30;;;;;;;1999.90;999.90;;;;;;;16.85;100.00;97487.03;18629378;31;20093;-59
2023/10/14 07:06:33;;;;;;;1999.90;999.90;;;;;;;16.99;100.00;97493.19;18628606;31;20075;-59
2023/10/14 07:16:36;;;;;;;1999.90;999.90;;;;;;;16.96;100.00;97503.97;18628487;31;20076;-59
2023/10/14 07:26:39;;;;;;;1999.90;999.90;;;;;;;17.14;100.00;97510.28;18600948;31;20092;-59
2023/10/14 07:36:43;;;;;;;1999.90;999.90;;;;;;;17.17;100.00;97515.09;18620339;31;20057;-59
2023/10/14 07:46:54;;;;;;;1999.90;999.90;;;;;;;17.43;100.00;97523.37;18559786;32;20053;-59
2023/10/14 07:56:58;;;;;;;1999.90;999.90;;;;;;;17.94;100.00;97532.78;18560863;31;20056;-59
2023/10/14 08:07:06;;;;;;;1999.90;999.90;;;;;;;17.79;100.00;97519.56;18560407;32;20055;-59
2023/10/14 08:17:11;;;;;;;1999.90;999.90;;;;;;;17.81;100.00;97508.31;18559509;31;20107;-59
2023/10/14 08:27:15;;;;;;;1999.90;999.90;;;;;;;17.97;100.00;97536.81;18558745;32;20082;-59
2023/10/14 08:37:18;;;;;;;1999.90;999.90;;;;;;;18.02;100.00;97530.38;18559424;31;20129;-59
2023/10/14 08:47:22;;;;;;;1999.90;999.90;;;;;;;17.99;100.00;97533.75;18610511;31;20067;-59
2023/10/14 08:57:25;;;;;;;1999.90;999.90;;;;;;;18.05;100.00;97548.91;18624473;31;20437;-59
2023/10/14 09:07:34;;;;;;;1999.90;999.90;;;;;;;18.18;100.00;97552.59;18609571;31;20364;-58
2023/10/14 09:17:36;;;;;;;1999.90;999.90;;;;;;;18.08;100.00;97542.78;18609251;31;20052;-59
2023/10/14 09:27:48;;;;;;;1999.90;999.90;;;;;;;17.87;100.00;97550.75;18625725;31;20056;-58
2023/10/14 09:37:52;;;;;;;1999.90;999.90;;;;;;;17.99;100.00;97550.97;18620458;31;20127;-59
2023/10/14 09:47:57;;;;;;;1999.90;999.90;;;;;;;18.58;100.00;97539.50;18633824;31;20098;-59
2023/10/14 09:58:01;;;;;;;1999.90;999.90;;;;;;;18.74;100.00;97544.44;18633176;31;20144;-59
2023/10/14 10:08:55;;;;;;;1999.90;999.90;;;;;;;18.89;100.00;97537.66;18632573;31;20424;-59
2023/10/14 10:18:59;;;;;;;1999.90;999.90;;;;;;;19.13;100.00;97542.56;18363391;32;20162;-59
2023/10/14 10:29:23;;;;;;;1999.90;999.90;;;;;;;19.19;100.00;97549.44;18363215;32;20491;-58
2023/10/14 10:39:27;;;;;;;1999.90;999.90;;;;;;;19.19;100.00;97535.75;18361512;32;20058;-58
2023/10/14 10:49:49;;;;;;;1999.90;999.90;;;;;;;19.06;100.00;97531.28;18492934;31;20052;-58
2023/10/14 10:59:55;;;;;;;1999.90;999.90;;;;;;;18.61;100.00;97521.59;18629334;31;20079;-58
2023/10/14 11:09:58;;;;;;;1999.90;999.90;;;;;;;19.16;100.00;97514.47;18628830;31;20064;-58
2023/10/14 11:20:04;;;;;;;1999.90;999.90;;;;;;;19.76;100.00;97506.19;18627636;31;20095;-58
2023/10/14 11:30:12;;;;;;;1999.90;999.90;;;;;;;19.72;100.00;97486.06;18627611;31;20484;-58
2023/10/14 11:40:15;;;;;;;1999.90;999.90;;;;;;;20.53;100.00;97486.63;18626560;31;20067;-58
2023/10/14 11:50:18;;;;;;;1999.90;999.90;;;;;;;20.37;100.00;97504.91;18611594;31;20079;-59
2023/10/14 12:00:22;;;;;;;1999.90;999.90;;;;;;;17.84;100.00;97560.44;18611626;31;20064;-58
2023/10/14 12:10:26;;;;;;;1999.90;999.90;;;;;;;17.18;100.00;97572.16;18618884;31;20098;-58
2023/10/14 12:20:31;;;;;;;1999.90;999.90;;;;;;;16.48;100.00;97603.72;18625094;31;20397;-59
2023/10/14 12:30:42;;;;;;;1999.90;999.90;;;;;;;15.62;100.00;97648.94;18625399;31;20048;-59
2023/10/14 12:40:48;;;;;;;1999.90;999.90;;;;;;;15.60;100.00;97673.78;18624897;31;20092;-59
2023/10/14 12:50:51;;;;;;;1999.90;999.90;;;;;;;15.98;100.00;97697.31;18624692;31;20052;-59
2023/10/14 13:00:54;;;;;;;1999.90;999.90;;;;;;;15.88;100.00;97707.34;18632180;31;20051;-59
2023/10/14 13:10:57;;;;;;;1999.90;999.90;;;;;;;15.40;100.00;97724.03;18635928;31;20119;-59
2023/10/14 13:21:00;;;;;;;1999.90;999.90;;;;;;;15.19;100.00;97742.66;18621379;31;20048;-59
2023/10/14 13:31:04;;;;;;;1999.90;999.90;;;;;;;14.93;100.00;97755.88;18634912;31;20072;-59
2023/10/14 13:41:14;;;;;;;1999.90;999.90;;;;;;;14.91;100.00;97773.31;18633861;31;20040;-59
2023/10/14 13:51:17;;;;;;;1999.90;999.90;;;;;;;14.91;100.00;97776.03;18633693;31;20056;-59
2023/10/14 14:01:21;;;;;;;1999.90;999.90;;;;;;;15.12;100.00;97800.22;18626401;31;20075;-59
2023/10/14 14:11:24;;;;;;;1999.90;999.90;;;;;;;15.10;100.00;97813.31;18604567;31;20078;-59
2023/10/14 14:21:27;;;;;;;1999.90;999.90;;;;;;;14.83;100.00;97819.47;18617514;31;20086;-59
2023/10/14 14:31:30;;;;;;;1999.90;999.90;;;;;;;14.47;100.00;97823.44;18631524;31;20097;-59
2023/10/14 14:41:34;;;;;;;1999.90;999.90;;;;;;;14.43;100.00;97838.72;18630262;31;20078;-59
2023/10/14 14:51:37;;;;;;;;;;;;;;;14.26;100.00;97839.19;18616319;31;20056;-59
2023/10/14 15:01:43;;;;;;;1999.90;999.90;;;;;;;14.08;100.00;97865.22;18629657;31;19944;-59
2023/10/14 15:11:47;;;;;;;1999.90;999.90;;;;;;;13.65;100.00;97849.59;18614841;31;20064;-59
2023/10/14 15:21:50;;;;;;;1999.90;999.90;;;;;;;13.47;100.00;97875.56;18627829;31;20063;-59
2023/10/14 15:31:57;;;;;;;1999.90;999.90;;;;;;;13.36;100.00;97896.56;18613813;31;20049;-59
2023/10/14 15:42:00;;;;;;;1999.90;999.90;;;;;;;13.30;100.00;97910.41;18612606;31;20044;-59
2023/10/14 15:52:04;;;;;;;1999.90;999.90;;;;;;;13.14;100.00;97915.94;18626291;31;20057;-59
2023/10/14 16:02:07;;;;;;;1999.90;999.90;;;;;;;12.97;100.00;97924.44;18598859;31;20040;-59
2023/10/14 16:12:10;;;;;;;1999.90;999.90;;;;;;;13.03;100.00;97925.22;18625724;31;20390;-59
2023/10/14 16:22:14;;;;;;;1999.90;999.90;;;;;;;12.96;100.00;97922.00;18610953;31;20059;-59
2023/10/14 16:32:17;;;;;;;1999.90;999.90;;;;;;;12.86;100.00;97928.31;18628300;31;20438;-59
2023/10/14 16:42:24;;;;;;;1999.90;999.90;;;;;;;12.59;100.00;97940.34;18623019;31;20079;-59
2023/10/14 16:52:28;;;;;;;1999.90;999.90;;;;;;;12.30;100.00;97964.56;18637288;31;20364;-59
2023/10/14 17:02:31;;;;;;;1999.90;999.90;;;;;;;12.34;100.00;97981.91;18636700;31;20056;-59
2023/10/14 17:12:37;;;;;;;1999.90;999.90;;;;;;;12.13;100.00;97992.78;18636336;31;20053;-59
2023/10/14 17:22:47;;;;;;;1999.90;999.90;;;;;;;12.18;100.00;97998.19;18635735;31;20078;-59
2023/10/14 17:32:50;;;;;;;1999.90;999.90;;;;;;;12.17;100.00;98028.28;18621683;31;20504;-59
2023/10/14 17:42:54;;;;;;;;;;;;;;;12.26;100.00;98048.34;18634464;31;20068;-59
2023/10/14 17:52:59;;;;;;;1999.90;999.90;;;;;;;12.18;100.00;98065.13;18620135;31;19963;-59
2023/10/14 18:03:15;;;;;;;1999.90;999.90;;;;;;;12.17;100.00;98082.50;18634092;31;20385;-59
2023/10/14 18:13:22;;;;;;;1999.90;999.90;;;;;;;12.16;100.00;98078.97;18632636;31;20060;-59
2023/10/14 18:23:26;;;;;;;1999.90;999.90;;;;;;;12.01;100.00;98077.06;18632132;31;20045;-59
2023/10/14 18:33:31;;;;;;;1999.90;999.90;;;;;;;12.11;100.00;98092.50;18624303;31;20075;-59
2023/10/14 18:43:41;;;;;;;1999.90;999.90;;;;;;;12.05;100.00;98088.19;18616497;31;20052;-59
2023/10/14 18:53:45;;;;;;;1999.90;999.90;;;;;;;11.99;100.00;98094.66;18629643;31;20095;-59
2023/10/14 19:03:48;;;;;;;1999.90;999.90;;;;;;;11.96;100.00;98108.75;18629109;31;20056;-59
2023/10/14 19:13:51;;;;;;;1999.90;999.90;;;;;;;11.91;100.00;98108.72;18614010;31;20111;-59
2023/10/14 19:23:54;;;;;;;1999.90;999.90;;;;;;;11.92;100.00;98118.47;18628282;31;20127;-59
2023/10/14 19:33:57;;;;;;;1999.90;999.90;;;;;;;11.75;100.00;98114.09;18627623;31;20424;-59
2023/10/14 19:44:03;;;;;;;1999.90;999.90;;;;;;;11.71;100.00;98131.97;18626768;31;20087;-59
2023/10/14 19:54:06;;;;;;;1999.90;999.90;;;;;;;11.72;100.00;98138.19;18612771;31;20117;-59
2023/10/14 20:04:09;;;;;;;1999.90;999.90;;;;;;;11.58;100.00;98127.03;18625988;31;20380;-59
2023/10/14 20:14:12;;;;;;;1999.90;999.90;;;;;;;11.56;100.00;98118.37;18625243;31;20104;-59
2023/10/14 20:24:15;;;;;;;1999.90;999.90;;;;;;;11.50;100.00;98121.06;18618815;31;20071;-59
2023/10/14 20:34:18;;;;;;;1999.90;999.90;;;;;;;11.56;100.00;98119.19;18625071;31;20060;-59
2023/10/14 20:44:23;;;;;;;1999.90;999.90;;;;;;;11.55;100.00;98122.97;18610555;31;20088;-59
2023/10/14 20:54:26;;;;;;;1999.90;999.90;;;;;;;11.58;100.00;98124.34;18624457;31;20115;-59
2023/10/14 21:04:29;;;;;;;1999.90;999.90;;;;;;;11.56;100.00;98140.03;18624198;31;20136;-59
2023/10/14 21:14:31;;;;;;;1999.90;999.90;;;;;;;11.51;100.00;98133.53;18609446;31;20109;-59
2023/10/14 21:24:35;;;;;;;1999.90;999.90;;;;;;;11.45;100.00;98131.88;18619434;31;20381;-59
2023/10/14 21:34:37;;;;;;;1999.90;999.90;;;;;;;11.30;100.00;98120.97;18635298;31;20107;-59
2023/10/14 21:44:40;;;;;;;1999.90;999.90;;;;;;;11.29;100.00;98113.91;18634209;31;20053;-59
2023/10/14 21:54:42;;;;;;;1999.90;999.90;;;;;;;11.30;100.00;98113.66;18633588;31;20511;-59
2023/10/14 22:04:44;;;;;;;1999.90;999.90;;;;;;;11.27;100.00;98099.84;18633598;31;20074;-59
2023/10/14 22:14:47;;;;;;;1999.90;999.90;;;;;;;11.26;100.00;98104.44;18626096;31;20052;-59
2023/10/14 22:24:49;;;;;;;1999.90;999.90;;;;;;;11.21;100.00;98085.47;18631838;31;20060;-58
2023/10/14 22:34:51;;;;;;;1999.90;999.90;;;;;;;11.17;100.00;98066.25;18616514;31;20100;-59
2023/10/14 22:44:54;;;;;;;1999.90;999.90;;;;;;;11.07;100.00;98055.34;18630474;31;20380;-58
2023/10/14 22:54:56;;;;;;;1999.90;999.90;;;;;;;11.05;100.00;98057.53;18629889;31;20067;-58
2023/10/14 23:04:59;;;;;;;1999.90;999.90;;;;;;;11.08;100.00;98067.81;18614487;31;20060;-59
2023/10/14 23:15:03;;;;;;;1999.90;999.90;;;;;;;10.96;100.00;98072.63;18628610;31;20083;-58
2023/10/14 23:25:06;;;;;;;1999.90;999.90;;;;;;;11.08;100.00;98065.09;18628402;31;20094;-58
2023/10/14 23:35:21;;;;;;;1999.90;999.90;;;;;;;11.09;100.00;98074.88;18627336;31;20090;-58
2023/10/14 23:45:26;;;;;;;1999.90;999.90;;;;;;;10.58;100.00;98063.72;18627373;31;20082;-58
2023/10/14 23:55:28;;;;;;;1999.90;999.90;;;;;;;10.90;100.00;98062.88;18612326;31;20131;-58
